Time;durP1;ratioP1;P1;durP2;ratioP2;P2;SDS_P1;SDS_P2;PMS_P1;PMS_P2;Temp;Humidity;BMP_temperature;BMP_pressure;BME280_temperature;BME280_humidity;BME280_pressure;Samples;Min_cycle;Max_cycle;Signal;HPM_P1;HPM_P2
2023/03/25 00:00:58;;;;;;;2.65;1.35;;;9.50;99.90;;;;;;5032153;28;20171;-48
2023/03/25 00:03:29;;;;;;;5.93;2.00;;;9.50;99.90;;;;;;5032110;28;20252;-52
2023/03/25 00:05:56;;;;;;;4.85;1.13;;;9.50;99.90;;;;;;5031832;28;20711;-51
2023/03/25 00:08:25;;;;;;;3.67;1.58;;;9.60;99.90;;;;;;5031973;28;20288;-51
2023/03/25 00:10:53;;;;;;;3.58;1.42;;;9.50;99.90;;;;;;5031870;28;20653;-52
2023/03/25 00:13:20;;;;;;;5.43;1.08;;;9.60;99.90;;;;;;5031659;28;20179;-50
2023/03/25 00:15:46;;;;;;;5.65;1.80;;;;;;;;;;5032068;28;20175;-50
2023/03/25 00:18:12;;;;;;;4.43;1.45;;;9.60;99.90;;;;;;5031753;28;20246;-50
2023/03/25 00:20:40;;;;;;;2.97;1.65;;;9.60;99.90;;;;;;5031268;28;20190;-51
2023/03/25 00:23:07;;;;;;;3.40;0.98;;;9.70;99.90;;;;;;5030125;28;20175;-51
2023/03/25 00:25:33;;;;;;;4.68;1.58;;;;;;;;;;5031625;28;20647;-47
2023/03/25 00:27:59;;;;;;;4.47;1.67;;;9.70;99.90;;;;;;5031597;28;20260;-48
2023/03/25 00:30:25;;;;;;;7.70;1.30;;;9.70;99.90;;;;;;5031644;28;20611;-46
2023/03/25 00:32:56;;;;;;;4.63;1.73;;;9.70;99.90;;;;;;5031326;28;20631;-44
2023/03/25 00:35:22;;;;;;;4.97;1.63;;;9.70;99.90;;;;;;5031228;28;20235;-45
2023/03/25 00:37:56;;;;;;;2.40;1.05;;;9.70;99.90;;;;;;5031839;28;20175;-45
2023/03/25 00:40:22;;;;;;;2.63;1.02;;;9.80;99.90;;;;;;5031224;28;20181;-44
2023/03/25 00:42:48;;;;;;;8.23;2.08;;;9.70;99.90;;;;;;5031396;28;20182;-44
2023/03/25 00:45:15;;;;;;;5.75;2.00;;;9.70;99.90;;;;;;5031547;28;20178;-45
2023/03/25 00:47:41;;;;;;;5.43;1.98;;;9.70;99.90;;;;;;5031592;28;20203;-48
2023/03/25 00:50:07;;;;;;;4.97;1.30;;;9.80;99.90;;;;;;5031184;28;20221;-47
2023/03/25 00:52:32;;;;;;;3.47;1.40;;;9.80;99.90;;;;;;5030914;28;20559;-45
2023/03/25 00:54:58;;;;;;;4.82;1.20;;;9.80;99.90;;;;;;5030963;28;20163;-45
2023/03/25 00:57:24;;;;;;;2.47;1.05;;;9.70;99.90;;;;;;5031145;28;20171;-47
2023/03/25 00:59:49;;;;;;;3.17;1.05;;;9.80;99.90;;;;;;5030727;28;20179;-46
2023/03/25 01:02:17;;;;;;;5.43;1.35;;;;;;;;;;5030733;28;20174;-45
2023/03/25 01:04:44;;;;;;;2.58;1.27;;;9.70;99.90;;;;;;5030884;28;20649;-45
2023/03/25 01:07:11;;;;;;;4.53;1.23;;;;;;;;;;5030508;28;20691;-44
2023/03/25 01:09:38;;;;;;;8.02;1.60;;;9.70;99.90;;;;;;5030556;28;20215;-45
2023/03/25 01:12:03;;;;;;;3.22;1.23;;;9.70;99.90;;;;;;5031191;28;20175;-49
2023/03/25 01:14:29;;;;;;;4.78;1.08;;;;;;;;;;5030575;28;20171;-51
2023/03/25 01:16:58;;;;;;;6.38;1.73;;;9.70;99.90;;;;;;5030954;28;20224;-52
2023/03/25 01:19:24;;;;;;;2.42;1.10;;;9.70;99.90;;;;;;5029438;28;20176;-51
2023/03/25 01:21:50;;;;;;;3.17;1.42;;;9.70;99.90;;;;;;5030759;28;20175;-52
2023/03/25 01:24:16;;;;;;;3.63;1.30;;;9.70;99.90;;;;;;5030989;28;20649;-52
2023/03/25 01:26:42;;;;;;;2.28;0.57;;;9.60;99.90;;;;;;5031073;28;20175;-51
2023/03/25 01:29:09;;;;;;;3.53;0.70;;;9.60;99.90;;;;;;5030860;28;20237;-52
2023/03/25 01:31:34;;;;;;;0.70;0.70;;;9.60;99.90;;;;;;5030782;28;20665;-52
2023/03/25 01:34:01;;;;;;;1.10;1.00;;;;;;;;;;5030582;28;20182;-50
2023/03/25 01:36:29;;;;;;;4.05;0.82;;;9.60;99.90;;;;;;5030864;28;20182;-52
2023/03/25 01:38:57;;;;;;;3.47;0.98;;;9.60;99.90;;;;;;5030658;28;20507;-52
2023/03/25 01:41:24;;;;;;;1.17;0.50;;;9.60;99.90;;;;;;5030990;28;20229;-52
2023/03/25 01:44:18;;;;;;;1.02;0.98;;;9.60;99.90;;;;;;5030521;28;20242;-52
2023/03/25 01:46:45;;;;;;;2.67;0.80;;;;;;;;;;5031025;28;20210;-51
2023/03/25 01:49:25;;;;;;;1.58;1.10;;;9.40;99.90;;;;;;5031159;28;20271;-52
2023/03/25 01:52:03;;;;;;;1.77;0.98;;;9.40;99.90;;;;;;5030530;28;20733;-50
2023/03/25 01:54:29;;;;;;;1.80;0.65;;;9.40;99.90;;;;;;5030524;28;20179;-52
2023/03/25 01:56:55;;;;;;;1.73;0.88;;;;;;;;;;5030468;28;20513;-45
2023/03/25 01:59:25;;;;;;;1.15;0.40;;;9.40;99.90;;;;;;5030644;28;20533;-44
2023/03/25 02:01:52;;;;;;;3.40;0.85;;;9.30;99.90;;;;;;5030299;28;20175;-45
2023/03/25 02:04:30;;;;;;;1.27;0.60;;;9.30;99.90;;;;;;5030527;28;20175;-45
2023/03/25 02:06:57;;;;;;;1.33;0.50;;;9.30;99.90;;;;;;5030454;28;20643;-45
2023/03/25 02:09:25;;;;;;;2.95;0.75;;;9.30;99.90;;;;;;5030257;28;20709;-45
2023/03/25 02:11:53;;;;;;;2.60;0.80;;;9.30;99.90;;;;;;5034101;28;20171;-45
2023/03/25 02:14:23;;;;;;;1.38;0.55;;;9.30;99.90;;;;;;5034357;28;20218;-44
2023/03/25 02:17:09;;;;;;;3.75;0.77;;;9.20;99.90;;;;;;5034012;28;20175;-48
2023/03/25 02:19:46;;;;;;;2.20;0.90;;;9.20;99.90;;;;;;5034436;28;20159;-44
2023/03/25 02:22:49;;;;;;;2.42;0.77;;;9.20;99.90;;;;;;5025723;28;20175;-51
2023/03/25 02:25:44;;;;;;;2.65;1.40;;;9.20;99.90;;;;;;5034494;28;20167;-51
2023/03/25 02:28:37;;;;;;;3.47;0.85;;;9.10;99.90;;;;;;5034437;28;20317;-51
2023/03/25 02:31:17;;;;;;;5.75;1.50;;;9.20;99.90;;;;;;5032760;28;20183;-49
2023/03/25 02:33:51;;;;;;;4.32;1.42;;;9.20;99.90;;;;;;5034431;28;20546;-49
2023/03/25 02:36:40;;;;;;;2.17;1.98;;;9.10;99.90;;;;;;5033642;28;20194;-51
2023/03/25 02:39:21;;;;;;;1.85;0.80;;;9.20;99.90;;;;;;5033993;28;20251;-51
2023/03/25 02:42:15;;;;;;;2.97;1.00;;;9.20;99.90;;;;;;5032632;28;20167;-51
2023/03/25 02:45:02;;;;;;;2.88;1.20;;;9.20;99.90;;;;;;5033456;28;20182;-52
2023/03/25 02:47:36;;;;;;;3.50;0.90;;;9.20;99.90;;;;;;5033741;28;20206;-52
2023/03/25 02:50:08;;;;;;;2.20;0.95;;;9.20;99.90;;;;;;5033732;28;20643;-52
2023/03/25 02:52:42;;;;;;;0.77;0.77;;;9.20;99.90;;;;;;5033659;28;20175;-50
2023/03/25 02:55:11;;;;;;;3.00;1.27;;;9.20;99.90;;;;;;5033508;28;20253;-52
2023/03/25 02:57:41;;;;;;;3.17;1.13;;;9.30;99.90;;;;;;5033610;28;20176;-45
2023/03/25 03:00:14;;;;;;;3.65;1.20;;;9.30;99.90;;;;;;5033481;28;20183;-44
2023/03/25 03:02:44;;;;;;;2.28;1.50;;;9.30;99.90;;;;;;5033782;28;20222;-45
2023/03/25 03:05:28;;;;;;;2.47;0.80;;;9.30;99.90;;;;;;5033408;28;20175;-44
2023/03/25 03:08:17;;;;;;;3.20;1.23;;;9.30;99.90;;;;;;5033019;28;20733;-45
2023/03/25 03:10:58;;;;;;;2.00;1.05;;;9.30;99.90;;;;;;5034038;28;20571;-45
2023/03/25 03:13:33;;;;;;;3.15;1.10;;;9.30;99.90;;;;;;5033151;28;20167;-45
2023/03/25 03:16:20;;;;;;;1.52;0.77;;;9.30;99.90;;;;;;5033233;28;20167;-44
2023/03/25 03:18:50;;;;;;;5.38;1.77;;;9.30;99.90;;;;;;5033008;28;20171;-45
2023/03/25 03:21:16;;;;;;;3.55;1.15;;;;;;;;;;5032871;28;20178;-45
2023/03/25 03:24:08;;;;;;;3.17;1.65;;;9.30;99.90;;;;;;5033076;28;20176;-45
2023/03/25 03:26:49;;;;;;;1.92;1.40;;;9.30;99.90;;;;;;5032816;28;20175;-45
2023/03/25 03:29:41;;;;;;;7.72;1.20;;;9.30;99.90;;;;;;5033103;28;20198;-45
2023/03/25 03:32:15;;;;;;;3.72;1.33;;;9.30;99.90;;;;;;5032949;28;20167;-45
2023/03/25 03:34:46;;;;;;;3.67;1.25;;;9.30;99.90;;;;;;5032930;28;20639;-45
2023/03/25 03:37:17;;;;;;;3.85;1.73;;;9.20;99.90;;;;;;5033243;28;20206;-47
2023/03/25 03:39:46;;;;;;;5.03;1.65;;;9.20;99.90;;;;;;5033193;28;20175;-45
2023/03/25 03:42:17;;;;;;;5.85;1.50;;;9.20;99.90;;;;;;5033002;28;20254;-45
2023/03/25 03:44:49;;;;;;;8.10;1.23;;;9.20;99.90;;;;;;5033361;28;20171;-45
2023/03/25 03:47:20;;;;;;;6.00;1.25;;;9.20;99.90;;;;;;5033325;28;20199;-46
2023/03/25 03:49:53;;;;;;;2.30;1.23;;;9.20;99.90;;;;;;5032405;28;20175;-47
2023/03/25 03:52:24;;;;;;;5.97;1.42;;;9.20;99.90;;;;;;5032417;28;20175;-45
2023/03/25 03:54:57;;;;;;;3.72;1.38;;;9.10;99.90;;;;;;5032596;28;20178;-45
2023/03/25 03:57:28;;;;;;;6.80;1.20;;;9.10;99.90;;;;;;5032469;28;20182;-46
2023/03/25 04:00:05;;;;;;;7.32;1.45;;;9.10;99.90;;;;;;5032543;28;20159;-45
2023/03/25 04:02:41;;;;;;;2.33;1.00;;;9.20;99.90;;;;;;5032736;28;20178;-45
2023/03/25 04:05:10;;;;;;;3.38;0.95;;;9.10;99.90;;;;;;5032211;28;20650;-45
2023/03/25 04:08:11;;;;;;;6.88;1.50;;;9.20;99.90;;;;;;5032496;28;20207;-45
2023/03/25 04:10:51;;;;;;;3.00;1.10;;;9.20;99.90;;;;;;5032736;28;20513;-45
2023/03/25 04:13:18;;;;;;;1.55;0.90;;;9.20;99.90;;;;;;5032729;28;20171;-45
2023/03/25 04:15:44;;;;;;;7.00;0.95;;;9.20;99.90;;;;;;5033129;28;20229;-51
2023/03/25 04:18:10;;;;;;;7.07;1.05;;;9.20;99.90;;;;;;5032806;28;20571;-45
2023/03/25 04:20:37;;;;;;;4.43;0.93;;;9.20;99.90;;;;;;5032326;28;20182;-45
2023/03/25 04:23:08;;;;;;;5.53;1.30;;;9.20;99.90;;;;;;5032113;28;20225;-45
2023/03/25 04:25:34;;;;;;;3.05;1.10;;;9.20;99.90;;;;;;5032649;28;20171;-45
2023/03/25 04:27:59;;;;;;;3.40;0.88;;;9.20;99.90;;;;;;5031755;28;20578;-44
2023/03/25 04:30:27;;;;;;;6.35;1.50;;;9.20;99.90;;;;;;5031604;28;20176;-45
2023/03/25 04:32:52;;;;;;;2.03;0.90;;;9.20;99.90;;;;;;5031669;28;20576;-44
2023/03/25 04:35:19;;;;;;;3.22;0.82;;;;;;;;;;5031185;28;20623;-46
2023/03/25 04:37:45;;;;;;;3.53;1.45;;;9.20;99.90;;;;;;5032216;28;20540;-44
2023/03/25 04:40:17;;;;;;;4.90;1.80;;;9.20;99.90;;;;;;5032044;28;20156;-44
2023/03/25 04:42:46;;;;;;;2.10;0.80;;;9.20;99.90;;;;;;5032242;28;20179;-45
2023/03/25 04:45:15;;;;;;;5.93;1.63;;;9.30;99.90;;;;;;5032052;28;20167;-45
2023/03/25 04:47:43;;;;;;;4.32;1.30;;;9.20;99.90;;;;;;5031798;28;20532;-45
2023/03/25 04:50:21;;;;;;;3.20;1.08;;;9.20;99.90;;;;;;5031845;28;20171;-48
2023/03/25 04:52:51;;;;;;;1.95;1.30;;;9.20;99.90;;;;;;5031155;28;20258;-48
2023/03/25 04:55:18;;;;;;;3.88;1.45;;;9.30;99.90;;;;;;5031413;28;20635;-48
2023/03/25 04:57:48;;;;;;;4.90;1.17;;;9.30;99.90;;;;;;5032042;28;20208;-44
2023/03/25 05:00:19;;;;;;;3.95;1.48;;;9.30;99.90;;;;;;5031999;28;20221;-45
2023/03/25 05:02:46;;;;;;;2.97;1.35;;;9.30;99.90;;;;;;5031343;28;20655;-44
2023/03/25 05:05:17;;;;;;;1.95;1.20;;;9.40;99.90;;;;;;5031141;28;20183;-44
2023/03/25 05:07:53;;;;;;;2.78;0.80;;;9.30;99.90;;;;;;5031140;28;20199;-44
2023/03/25 05:10:22;;;;;;;4.72;1.00;;;9.30;99.90;;;;;;5031445;28;20181;-44
2023/03/25 05:12:48;;;;;;;3.63;1.08;;;9.30;99.90;;;;;;5031464;28;20179;-45
2023/03/25 05:15:16;;;;;;;4.00;1.08;;;9.30;99.90;;;;;;5031613;28;20266;-45
2023/03/25 05:17:42;;;;;;;5.25;1.15;;;9.30;99.90;;;;;;5031657;28;20171;-44
2023/03/25 05:20:09;;;;;;;1.73;0.68;;;9.30;99.90;;;;;;5030704;28;20203;-44
2023/03/25 05:22:36;;;;;;;2.47;0.57;;;9.30;99.90;;;;;;5031081;28;20218;-44
2023/03/25 05:25:06;;;;;;;7.32;1.23;;;9.40;99.90;;;;;;5031079;28;20528;-46
2023/03/25 05:27:33;;;;;;;2.80;1.23;;;9.30;99.90;;;;;;5031211;28;20227;-44
2023/03/25 05:29:59;;;;;;;2.83;1.50;;;9.30;99.90;;;;;;5030834;28;20191;-45
2023/03/25 05:32:28;;;;;;;2.50;1.10;;;9.30;99.90;;;;;;5031330;28;20171;-45
2023/03/25 05:34:55;;;;;;;3.25;1.75;;;9.30;99.90;;;;;;5030860;28;20171;-45
2023/03/25 05:37:21;;;;;;;5.60;1.73;;;9.20;99.90;;;;;;5030920;28;20213;-45
2023/03/25 05:39:46;;;;;;;6.47;1.25;;;9.20;99.90;;;;;;5030655;28;20179;-45
2023/03/25 05:42:13;;;;;;;2.70;0.90;;;9.20;99.90;;;;;;5031392;28;20254;-45
2023/03/25 05:44:45;;;;;;;10.43;1.77;;;9.20;99.90;;;;;;5031279;28;20631;-47
2023/03/25 05:47:12;;;;;;;4.70;1.50;;;9.30;99.90;;;;;;5035464;28;20175;-45
2023/03/25 05:49:38;;;;;;;2.45;1.30;;;9.30;99.90;;;;;;5034974;28;20178;-46
2023/03/25 05:52:04;;;;;;;5.65;2.00;;;9.30;99.90;;;;;;5034273;28;20669;-49
2023/03/25 05:54:29;;;;;;;2.60;1.15;;;9.30;99.90;;;;;;5034789;28;20250;-50
2023/03/25 05:56:55;;;;;;;4.50;1.23;;;9.30;99.90;;;;;;5034373;28;20646;-49
2023/03/25 05:59:20;;;;;;;5.82;1.60;;;9.30;99.90;;;;;;5034729;28;20627;-48
2023/03/25 06:01:46;;;;;;;2.97;1.60;;;9.30;99.90;;;;;;5034835;28;20174;-47
2023/03/25 06:04:12;;;;;;;4.68;1.50;;;9.40;99.90;;;;;;5035010;28;20635;-45
2023/03/25 06:06:38;;;;;;;4.65;1.52;;;9.20;99.90;;;;;;5034741;28;20168;-45
2023/03/25 06:09:04;;;;;;;7.47;1.27;;;9.10;99.90;;;;;;5034192;28;20584;-47
2023/03/25 06:11:29;;;;;;;5.05;1.60;;;9.00;99.90;;;;;;5034408;28;20170;-45
2023/03/25 06:13:55;;;;;;;3.30;1.42;;;9.00;99.90;;;;;;5032968;28;20179;-45
2023/03/25 06:16:26;;;;;;;4.50;1.35;;;8.90;99.90;;;;;;5034342;28;20167;-46
2023/03/25 06:18:55;;;;;;;7.45;1.60;;;9.00;99.90;;;;;;5034458;28;20175;-45
2023/03/25 06:21:25;;;;;;;6.13;1.38;;;8.90;99.90;;;;;;5034144;28;20650;-45
2023/03/25 06:23:52;;;;;;;5.05;1.20;;;8.90;99.90;;;;;;5034234;28;20163;-45
2023/03/25 06:26:21;;;;;;;5.20;1.90;;;8.90;99.90;;;;;;5034213;28;20213;-45
2023/03/25 06:28:47;;;;;;;6.05;1.50;;;8.90;99.90;;;;;;5033810;28;20265;-44
2023/03/25 06:31:15;;;;;;;9.68;1.50;;;9.00;99.90;;;;;;5034688;28;20166;-45
2023/03/25 06:33:41;;;;;;;6.65;1.33;;;;;;;;;;5034331;28;20179;-45
2023/03/25 06:36:07;;;;;;;5.38;1.33;;;9.10;99.90;;;;;;5033599;28;20172;-45
2023/03/25 06:38:35;;;;;;;6.47;1.45;;;9.10;99.90;;;;;;5033738;28;20168;-44
2023/03/25 06:41:00;;;;;;;4.90;1.60;;;9.10;99.90;;;;;;5034139;28;20174;-45
2023/03/25 06:43:26;;;;;;;2.92;1.15;;;9.10;99.90;;;;;;5033863;28;20168;-45
2023/03/25 06:45:52;;;;;;;10.55;2.03;;;9.10;99.90;;;;;;5033825;28;20738;-45
2023/03/25 06:48:18;;;;;;;2.90;1.20;;;9.20;99.90;;;;;;5033145;28;20214;-45
2023/03/25 06:50:44;;;;;;;1.60;0.85;;;9.20;99.90;;;;;;5034096;28;20183;-45
2023/03/25 06:53:10;;;;;;;5.75;1.23;;;9.20;99.90;;;;;;5014223;28;20267;-45
2023/03/25 06:55:37;;;;;;;5.32;1.52;;;9.30;99.90;;;;;;5021080;28;20258;-45
2023/03/25 06:58:03;;;;;;;4.32;1.50;;;9.30;99.90;;;;;;5032831;28;20175;-45
2023/03/25 07:00:29;;;;;;;4.97;1.92;;;;;;;;;;5032838;28;20175;-45
2023/03/25 07:02:55;;;;;;;2.17;0.82;;;9.40;99.90;;;;;;5033674;28;20176;-47
2023/03/25 07:05:20;;;;;;;3.70;1.00;;;9.30;99.90;;;;;;5026393;28;20228;-45
2023/03/25 07:07:46;;;;;;;3.38;1.75;;;9.40;99.90;;;;;;5013813;28;20734;-45
2023/03/25 07:10:12;;;;;;;7.22;1.75;;;9.40;99.90;;;;;;5015610;28;20176;-45
2023/03/25 07:12:38;;;;;;;6.13;1.23;;;9.40;99.90;;;;;;5029496;28;20171;-44
2023/03/25 07:15:05;;;;;;;4.65;1.60;;;9.40;99.90;;;;;;5033418;28;20520;-45
2023/03/25 07:17:30;;;;;;;3.33;1.10;;;9.50;99.90;;;;;;5021556;28;20232;-45
2023/03/25 07:19:56;;;;;;;5.00;1.38;;;9.60;99.90;;;;;;5013598;28;20203;-45
2023/03/25 07:22:21;;;;;;;4.50;1.23;;;9.60;99.90;;;;;;5013500;28;20172;-45
2023/03/25 07:24:47;;;;;;;9.23;1.65;;;9.60;99.90;;;;;;5013210;28;20179;-46
2023/03/25 07:27:13;;;;;;;4.43;1.45;;;9.60;99.90;;;;;;5013383;28;20176;-45
2023/03/25 07:29:39;;;;;;;6.72;1.75;;;9.60;99.90;;;;;;5029877;28;20298;-44
2023/03/25 07:32:05;;;;;;;5.25;1.40;;;9.60;99.90;;;;;;5032724;28;20246;-44
2023/03/25 07:34:31;;;;;;;5.78;1.67;;;9.70;99.90;;;;;;5032805;28;20187;-45
2023/03/25 07:36:56;;;;;;;2.95;1.67;;;9.80;99.90;;;;;;5032890;28;20183;-45
2023/03/25 07:39:24;;;;;;;6.85;2.05;;;9.70;99.90;;;;;;5032797;28;20206;-44
2023/03/25 07:41:50;;;;;;;3.85;1.60;;;9.70;99.90;;;;;;5033004;28;20217;-46
2023/03/25 07:44:19;;;;;;;2.85;1.20;;;9.70;99.90;;;;;;5032621;28;20231;-46
2023/03/25 07:46:45;;;;;;;6.70;1.98;;;9.60;99.90;;;;;;5032852;28;20225;-44
2023/03/25 07:49:10;;;;;;;4.88;1.63;;;;;;;;;;5032351;28;20215;-44
2023/03/25 07:51:36;;;;;;;6.40;1.95;;;9.60;99.90;;;;;;5032329;28;20246;-44
2023/03/25 07:54:02;;;;;;;8.02;2.60;;;9.60;99.90;;;;;;5032361;28;20175;-45
2023/03/25 07:56:27;;;;;;;4.78;1.65;;;9.60;99.90;;;;;;5032060;28;20163;-44
2023/03/25 07:58:53;;;;;;;1.90;1.02;;;9.50;99.90;;;;;;5032616;28;20222;-45
2023/03/25 08:01:18;;;;;;;5.65;1.30;;;9.50;99.90;;;;;;5032577;28;20217;-44
2023/03/25 08:03:44;;;;;;;10.80;1.77;;;;;;;;;;5031209;28;20163;-44
2023/03/25 08:06:10;;;;;;;5.43;1.17;;;9.70;99.90;;;;;;5031694;28;20524;-45
2023/03/25 08:08:36;;;;;;;3.92;1.80;;;9.80;99.90;;;;;;5030792;28;20238;-42
2023/03/25 08:11:02;;;;;;;8.88;2.53;;;;;;;;;;5030974;28;20167;-47
2023/03/25 08:13:28;;;;;;;4.80;1.80;;;10.00;99.90;;;;;;5031153;28;20199;-44
2023/03/25 08:15:53;;;;;;;8.00;2.58;;;10.10;99.90;;;;;;5030720;28;20175;-45
2023/03/25 08:18:19;;;;;;;8.70;2.03;;;10.10;99.90;;;;;;5030283;28;20175;-45
2023/03/25 08:20:45;;;;;;;7.20;1.63;;;10.10;99.90;;;;;;5030870;28;20175;-44
2023/03/25 08:23:11;;;;;;;6.97;1.63;;;10.20;99.90;;;;;;5030920;28;20175;-44
2023/03/25 08:25:38;;;;;;;7.10;1.67;;;10.10;99.90;;;;;;5030466;28;20673;-44
2023/03/25 08:28:05;;;;;;;2.92;1.52;;;;;;;;;;5030144;28;20210;-49
2023/03/25 08:30:36;;;;;;;5.82;1.83;;;;;;;;;;5030260;28;20708;-49
2023/03/25 08:33:03;;;;;;;6.25;1.95;;;;;;;;;;5030277;28;20190;-50
2023/03/25 08:35:28;;;;;;;7.55;1.88;;;10.20;99.90;;;;;;5030551;28;20172;-51
2023/03/25 08:37:54;;;;;;;5.35;1.60;;;10.20;99.90;;;;;;5028886;28;20697;-50
2023/03/25 08:40:20;;;;;;;3.50;1.27;;;10.30;99.90;;;;;;5030117;28;20175;-49
2023/03/25 08:42:46;;;;;;;6.22;2.35;;;10.30;99.90;;;;;;5030038;28;20159;-47
2023/03/25 08:45:14;;;;;;;5.15;1.55;;;10.50;99.90;;;;;;5030644;28;20222;-49
2023/03/25 08:47:41;;;;;;;7.75;2.03;;;10.60;99.90;;;;;;5030624;28;20215;-45
2023/03/25 08:50:07;;;;;;;8.07;1.90;;;10.60;99.90;;;;;;5030440;28;20506;-44
2023/03/25 08:52:32;;;;;;;8.18;2.53;;;10.60;99.90;;;;;;5029844;28;20202;-44
2023/03/25 08:54:58;;;;;;;9.07;2.20;;;10.60;99.90;;;;;;5029909;28;20219;-44
2023/03/25 08:57:24;;;;;;;6.75;2.20;;;10.70;99.90;;;;;;5030091;28;20529;-45
2023/03/25 08:59:50;;;;;;;6.80;2.08;;;10.70;99.90;;;;;;5030331;28;20183;-44
2023/03/25 09:02:15;;;;;;;6.78;1.83;;;10.70;99.90;;;;;;5029785;28;20421;-44
2023/03/25 09:04:41;;;;;;;6.18;2.05;;;11.00;99.90;;;;;;5031070;28;20221;-44
2023/03/25 09:07:09;;;;;;;5.70;1.65;;;11.00;99.90;;;;;;5031383;28;20189;-44
2023/03/25 09:09:36;;;;;;;7.40;2.10;;;11.00;99.90;;;;;;5031086;28;20215;-45
2023/03/25 09:12:03;;;;;;;7.50;1.98;;;11.40;99.90;;;;;;5031174;28;20160;-44
2023/03/25 09:14:29;;;;;;;5.97;2.05;;;11.10;99.90;;;;;;5031282;28;20179;-44
2023/03/25 09:16:54;;;;;;;7.40;1.85;;;11.20;99.90;;;;;;5031225;28;20614;-44
2023/03/25 09:19:20;;;;;;;3.53;1.23;;;;;;;;;;5030679;28;20638;-44
2023/03/25 09:21:46;;;;;;;8.75;2.42;;;11.00;99.90;;;;;;5031110;28;20174;-45
2023/03/25 09:24:12;;;;;;;10.02;1.90;;;11.00;99.90;;;;;;5031363;28;20175;-44
2023/03/25 09:26:38;;;;;;;7.97;2.13;;;;;;;;;;5031113;28;20666;-44
2023/03/25 09:29:04;;;;;;;6.18;1.73;;;11.20;99.90;;;;;;5031431;28;20210;-44
2023/03/25 09:31:29;;;;;;;5.20;1.48;;;11.60;99.90;;;;;;5029735;28;20583;-45
2023/03/25 09:33:55;;;;;;;8.55;2.25;;;11.70;99.90;;;;;;5031087;28;20171;-44
2023/03/25 09:36:21;;;;;;;11.00;3.30;;;11.90;99.90;;;;;;5031051;28;20206;-52
2023/03/25 09:38:46;;;;;;;7.90;2.28;;;12.10;99.90;;;;;;5030921;28;20178;-52
2023/03/25 09:41:29;;;;;;;4.65;1.42;;;11.90;99.90;;;;;;5031736;28;20557;-53
2023/03/25 09:44:11;;;;;;;7.60;1.50;;;12.10;99.90;;;;;;5031088;28;20225;-52
2023/03/25 09:46:38;;;;;;;7.53;1.80;;;11.90;99.90;;;;;;5031175;28;20189;-51
2023/03/25 09:49:10;;;;;;;5.70;2.03;;;11.70;99.90;;;;;;5030553;28;20305;-50
2023/03/25 09:51:36;;;;;;;8.55;3.38;;;11.50;99.90;;;;;;5031011;28;20172;-50
2023/03/25 09:54:32;;;;;;;7.13;2.20;;;11.40;99.90;;;;;;5031686;28;20179;-53
2023/03/25 09:57:07;;;;;;;4.22;1.50;;;11.40;99.90;;;;;;5031064;28;20191;-52
2023/03/25 09:59:41;;;;;;;8.82;2.13;;;11.40;99.90;;;;;;5031264;28;20167;-51
2023/03/25 10:02:33;;;;;;;10.52;2.45;;;11.50;99.90;;;;;;5031260;28;20199;-52
2023/03/25 10:05:14;;;;;;;6.68;2.03;;;11.50;99.90;;;;;;5031490;28;20254;-52
2023/03/25 10:08:04;;;;;;;5.70;1.65;;;11.60;99.90;;;;;;5031163;28;20201;-53
2023/03/25 10:10:40;;;;;;;6.18;1.90;;;11.40;99.90;;;;;;5031139;28;20712;-52
2023/03/25 10:13:33;;;;;;;3.50;1.52;;;11.30;99.90;;;;;;5031115;28;20163;-52
2023/03/25 10:16:33;;;;;;;9.27;2.50;;;11.40;99.90;;;;;;5031086;28;20640;-52
2023/03/25 10:19:16;;;;;;;6.10;1.90;;;11.50;99.90;;;;;;5030187;28;20655;-52
2023/03/25 10:22:04;;;;;;;6.38;1.30;;;11.50;99.90;;;;;;5031650;28;20164;-52
2023/03/25 10:24:33;;;;;;;5.70;1.95;;;11.50;99.90;;;;;;5031019;28;20198;-52
2023/03/25 10:27:14;;;;;;;5.18;1.48;;;11.50;99.90;;;;;;5031173;28;20198;-53
2023/03/25 10:29:54;;;;;;;14.15;2.08;;;11.50;99.90;;;;;;5031610;28;20191;-52
2023/03/25 10:32:53;;;;;;;6.78;2.35;;;11.60;99.90;;;;;;5032567;28;20709;-48
2023/03/25 10:35:30;;;;;;;9.02;1.98;;;11.70;99.90;;;;;;5034669;28;20179;-49
2023/03/25 10:38:06;;;;;;;6.25;1.60;;;11.70;99.90;;;;;;5034275;28;20179;-47
2023/03/25 10:40:55;;;;;;;9.25;2.25;;;11.70;99.90;;;;;;5034316;28;20573;-44
2023/03/25 10:43:34;;;;;;;7.63;2.53;;;11.80;99.90;;;;;;5034963;28;20210;-45
2023/03/25 10:46:37;;;;;;;2.72;1.55;;;11.80;99.90;;;;;;5034364;28;20631;-45
2023/03/25 10:49:02;;;;;;;9.75;1.90;;;11.60;99.90;;;;;;5033377;28;21193;-44
2023/03/25 10:51:34;;;;;;;3.35;1.42;;;11.60;99.90;;;;;;5034347;28;20179;-45
2023/03/25 10:54:00;;;;;;;5.70;1.90;;;11.60;99.90;;;;;;5034455;28;20239;-52
2023/03/25 10:56:31;;;;;;;4.88;1.70;;;11.50;99.90;;;;;;5034210;28;20198;-50
2023/03/25 10:58:59;;;;;;;5.00;1.00;;;11.80;99.90;;;;;;5034682;28;20175;-44
2023/03/25 11:01:35;;;;;;;4.60;2.00;;;12.10;99.90;;;;;;5034159;28;20262;-44
2023/03/25 11:04:03;;;;;;;3.15;1.60;;;12.40;99.90;;;;;;5034300;28;20224;-53
2023/03/25 11:06:32;;;;;;;4.82;1.77;;;12.20;99.90;;;;;;5034278;28;20576;-52
2023/03/25 11:09:07;;;;;;;11.32;2.35;;;12.50;99.90;;;;;;5031925;28;20222;-45
2023/03/25 11:11:34;;;;;;;8.95;2.85;;;12.70;99.90;;;;;;5033847;28;20694;-45
2023/03/25 11:14:01;;;;;;;6.90;2.20;;;12.50;99.90;;;;;;5034104;28;20172;-52
2023/03/25 11:16:35;;;;;;;6.03;1.70;;;12.20;99.90;;;;;;5033888;28;20654;-44
2023/03/25 11:19:02;;;;;;;5.32;1.95;;;12.00;99.90;;;;;;5033930;28;20224;-52
2023/03/25 11:21:35;;;;;;;9.27;2.53;;;12.00;99.90;;;;;;5033963;28;20249;-49
2023/03/25 11:24:04;;;;;;;6.20;2.08;;;12.10;99.90;;;;;;5033655;28;20160;-47
2023/03/25 11:26:37;;;;;;;6.15;1.73;;;11.80;99.90;;;;;;5033150;28;20218;-45
2023/03/25 11:29:05;;;;;;;6.13;2.53;;;12.00;99.90;;;;;;5032643;28;20284;-49
2023/03/25 11:31:36;;;;;;;5.30;2.50;;;12.20;99.90;;;;;;5033466;28;20167;-52
2023/03/25 11:34:17;;;;;;;9.65;2.65;;;12.20;99.90;;;;;;5033459;28;20171;-52
2023/03/25 11:36:57;;;;;;;6.28;1.90;;;12.00;99.90;;;;;;5033352;28;20245;-52
2023/03/25 11:39:22;;;;;;;2.80;1.35;;;12.00;99.90;;;;;;5033036;28;20168;-45
2023/03/25 11:41:49;;;;;;;8.50;2.25;;;12.10;99.90;;;;;;5033387;28;20585;-44
2023/03/25 11:44:24;;;;;;;8.35;2.25;;;12.20;99.90;;;;;;5032916;28;20306;-44
2023/03/25 11:46:54;;;;;;;9.65;2.15;;;12.40;99.90;;;;;;5033492;28;20258;-44
2023/03/25 11:49:22;;;;;;;5.20;2.03;;;12.60;99.90;;;;;;5033248;28;20203;-44
2023/03/25 11:51:58;;;;;;;7.38;1.55;;;12.60;99.90;;;;;;5033187;28;20245;-44
2023/03/25 11:54:25;;;;;;;7.57;2.03;;;12.40;99.90;;;;;;5033074;28;20179;-45
2023/03/25 11:56:53;;;;;;;7.40;2.03;;;12.50;99.90;;;;;;5033073;28;20198;-46
2023/03/25 11:59:35;;;;;;;7.82;2.20;;;12.40;99.90;;;;;;5032855;28;20167;-44
2023/03/25 12:02:20;;;;;;;6.50;2.08;;;12.40;99.90;;;;;;5033293;28;20163;-44
2023/03/25 12:05:01;;;;;;;6.35;1.83;;;12.20;99.90;;;;;;5032755;28;20177;-44
2023/03/25 12:07:28;;;;;;;6.88;1.48;;;12.00;99.90;;;;;;5031646;28;20650;-43
2023/03/25 12:10:03;;;;;;;3.45;1.33;;;12.00;99.90;;;;;;5032541;28;20180;-53
2023/03/25 12:13:06;;;;;;;3.80;1.67;;;11.90;99.90;;;;;;5032147;28;20181;-53
2023/03/25 12:15:52;;;;;;;9.55;1.95;;;11.90;99.90;;;;;;5031699;28;20561;-52
2023/03/25 12:18:36;;;;;;;7.75;1.98;;;11.90;99.90;;;;;;5032030;28;20709;-51
2023/03/25 12:21:23;;;;;;;3.58;1.40;;;12.10;99.90;;;;;;5032256;28;20176;-52
2023/03/25 12:24:27;;;;;;;9.55;2.50;;;12.60;99.90;;;;;;5032160;28;20170;-52
2023/03/25 12:27:14;;;;;;;7.78;2.13;;;13.00;99.90;;;;;;5029903;28;20536;-52
2023/03/25 12:30:02;;;;;;;9.85;1.42;;;13.10;99.90;;;;;;5032442;28;20182;-53
2023/03/25 12:32:33;;;;;;;8.10;2.10;;;13.00;99.90;;;;;;5032318;28;20258;-52
2023/03/25 12:35:15;;;;;;;5.85;1.42;;;13.10;99.90;;;;;;5032016;28;20258;-52
2023/03/25 12:38:09;;;;;;;4.55;1.38;;;13.10;99.90;;;;;;5032034;28;20167;-53
2023/03/25 12:41:15;;;;;;;5.10;1.67;;;12.90;99.90;;;;;;5032200;28;20225;-53
2023/03/25 12:44:01;;;;;;;7.13;1.95;;;12.80;99.90;;;;;;5031338;28;20167;-53
2023/03/25 12:46:52;;;;;;;7.75;1.75;;;12.80;99.90;;;;;;5031973;28;20167;-52
2023/03/25 12:49:56;;;;;;;5.75;1.55;;;12.70;99.90;;;;;;5031824;28;20206;-44
2023/03/25 12:52:46;;;;;;;2.58;1.30;;;12.80;99.90;;;;;;5030705;28;20179;-52
2023/03/25 12:55:42;;;;;;;6.25;1.83;;;13.00;99.90;;;;;;5031108;28;20242;-45
2023/03/25 12:58:08;;;;;;;4.65;1.88;;;;;;;;;;5032161;28;20181;-50
2023/03/25 13:00:52;;;;;;;4.65;1.63;;;12.70;99.90;;;;;;5031699;28;20159;-53
2023/03/25 13:03:36;;;;;;;4.20;2.03;;;12.60;99.90;;;;;;5031796;28;20198;-49
2023/03/25 13:06:10;;;;;;;5.82;1.70;;;12.50;99.90;;;;;;5031116;28;20277;-52
2023/03/25 13:09:04;;;;;;;3.72;1.38;;;12.40;99.90;;;;;;5031081;28;20713;-54
2023/03/25 13:11:59;;;;;;;8.52;1.95;;;12.50;99.90;;;;;;5030641;28;20174;-53
2023/03/25 13:14:47;;;;;;;9.85;1.95;;;12.60;99.90;;;;;;5030855;28;20171;-48
2023/03/25 13:17:25;;;;;;;6.80;2.30;;;12.50;99.90;;;;;;5031067;28;20174;-43
2023/03/25 13:19:57;;;;;;;4.78;1.50;;;12.10;99.90;;;;;;5030483;28;20635;-45
2023/03/25 13:22:31;;;;;;;9.02;2.10;;;11.40;99.90;;;;;;5030894;28;20210;-48
2023/03/25 13:25:04;;;;;;;5.65;2.17;;;11.10;99.90;;;;;;5030758;28;20163;-53